Terminal Aerodrome Forecast
Issued by NWS

Home | Current Version | Previous Version | Text Only | Print | Product List | Glossary On
Versions: 1 2 3 4 5 6 7 8 9 10 11 12 13 14 15 16
000
FTUS45 KSLC 131138
TAFPVU
TAF
KPVU 131138Z 1312/1412 00000KT 1/4SM FZFG OVC001
      TEMPO 1315/1317 1SM BR OVC003
     FM131700 VRB03KT 1SM BR BCFG SCT003 BKN150
     FM131900 29004KT 3SM BR BKN110
     FM132200 32006KT P6SM BKN100=

USA.gov is the U.S. government's official web portal to all federal, state and local government web resources and services.